Time;durP1;ratioP1;P1;durP2;ratioP2;P2;SDS_P1;SDS_P2;PMS_P1;PMS_P2;Temp;Humidity;BMP_temperature;BMP_pressure;BME280_temperature;BME280_humidity;BME280_pressure;Samples;Min_cycle;Max_cycle;Signal;HPM_P1;HPM_P2
2021/07/23 00:00:39;;;;;;;8.27;3.10;;;;;;;16.99;63.07;100546.91;126237;1099;104281;-78
2021/07/23 00:03:17;;;;;;;8.33;3.70;;;;;;;16.96;62.42;100538.93;126355;1099;104242;-77
2021/07/23 00:05:48;;;;;;;8.83;3.30;;;;;;;16.93;62.50;100549.50;126331;1099;104343;-78
2021/07/23 00:08:19;;;;;;;8.73;3.43;;;;;;;16.91;63.26;100551.22;126342;1098;104159;-78
2021/07/23 00:10:50;;;;;;;9.23;3.00;;;;;;;16.86;62.88;100549.43;126272;1099;104220;-78
2021/07/23 00:13:20;;;;;;;9.00;2.80;;;;;;;16.84;63.21;100547.59;126312;1099;104195;-79
2021/07/23 00:15:52;;;;;;;;;;;;;;;16.79;62.98;100546.66;126328;1099;104207;-77
2021/07/23 00:18:23;;;;;;;7.90;3.30;;;;;;;16.76;63.22;100546.63;126355;1099;104219;-77
2021/07/23 00:20:54;;;;;;;7.55;3.15;;;;;;;16.74;62.64;100553.69;126287;1099;104221;-76
2021/07/23 00:23:25;;;;;;;8.57;2.80;;;;;;;16.71;63.84;100555.41;126296;1099;104162;-78
2021/07/23 00:25:55;;;;;;;11.43;3.30;;;;;;;16.68;63.57;100557.14;126317;1099;104631;-77
2021/07/23 00:28:26;;;;;;;12.17;3.53;;;;;;;16.65;63.66;100559.75;126341;1099;104195;-77
2021/07/23 00:30:56;;;;;;;5.83;2.97;;;;;;;16.59;64.49;100549.08;126245;1099;104174;-78
2021/07/23 00:33:27;;;;;;;6.10;3.13;;;;;;;16.53;64.06;100548.15;126337;1099;104305;-78
2021/07/23 00:35:58;;;;;;;7.67;3.10;;;;;;;16.51;65.04;100549.87;126295;1098;104153;-76
2021/07/23 00:38:29;;;;;;;9.57;3.20;;;;;;;16.50;64.46;100553.41;126376;1099;104143;-78
2021/07/23 00:41:00;;;;;;;9.13;3.00;;;;;;;16.46;64.37;100553.34;126297;1099;104143;-78
2021/07/23 00:43:31;;;;;;;8.03;3.20;;;;;;;16.45;65.00;100552.44;126338;1099;104156;-78
2021/07/23 00:46:01;;;;;;;6.37;3.20;;;;;;;16.43;65.32;100553.31;126353;1099;104179;-78
2021/07/23 00:48:33;;;;;;;9.73;3.20;;;;;;;16.41;65.36;100552.37;126326;1097;104197;-77
2021/07/23 00:51:06;;;;;;;9.33;3.20;;;;;;;16.39;65.31;100556.78;126319;1099;104252;-78
2021/07/23 00:53:37;;;;;;;8.87;3.30;;;;;;;16.34;64.95;100554.07;126354;1099;104188;-78
2021/07/23 00:56:07;;;;;;;8.83;3.13;;;;;;;16.32;65.89;100555.82;126333;1099;104249;-78
2021/07/23 00:58:38;;;;;;;7.53;3.10;;;;;;;16.27;64.97;100557.53;126269;1099;104241;-78
2021/07/23 01:01:11;;;;;;;8.23;3.00;;;;;;;16.27;66.17;100547.81;126300;1099;105559;-79
2021/07/23 01:03:43;;;;;;;6.83;3.37;;;;;;;16.28;66.27;100548.69;126278;1099;104153;-77
2021/07/23 01:06:14;;;;;;;7.77;3.10;;;;;;;16.27;66.40;100553.11;126264;1099;104271;-78
2021/07/23 01:08:45;;;;;;;7.23;3.30;;;;;;;16.25;65.84;100548.66;126320;1099;104297;-78
2021/07/23 01:11:17;;;;;;;8.00;3.20;;;;;;;16.24;66.83;100545.13;126297;1099;104146;-78
2021/07/23 01:14:00;;;;;;;11.23;4.10;;;;;;;16.22;65.74;100549.52;126317;1099;104156;-77
2021/07/23 01:16:32;;;;;;;9.78;3.10;;;;;;;16.20;66.13;100555.66;126316;1098;104220;-78
2021/07/23 01:19:06;;;;;;;8.20;3.00;;;;;;;16.18;65.74;100559.16;126324;1099;104220;-77
2021/07/23 01:21:40;;;;;;;7.83;3.87;;;;;;;16.18;66.70;100555.63;126322;1099;104171;-77
2021/07/23 01:24:14;;;;;;;5.93;2.87;;;;;;;16.18;65.96;100552.98;126317;1099;104171;-77
2021/07/23 01:26:51;;;;;;;6.33;3.33;;;;;;;16.16;65.95;100552.08;126311;1099;104345;-77
2021/07/23 01:29:41;;;;;;;8.97;3.10;;;;;;;16.14;66.80;100559.09;126356;1099;104238;-77
2021/07/23 01:32:14;;;;;;;6.80;3.22;;;;;;;16.13;66.86;100559.98;126256;1099;104213;-78
2021/07/23 01:34:46;;;;;;;8.83;3.17;;;;;;;16.10;66.14;100566.11;126291;1099;104172;-77
2021/07/23 01:37:20;;;;;;;9.10;3.57;;;;;;;16.09;66.09;100556.38;126343;1099;104587;-78
2021/07/23 01:39:54;;;;;;;8.27;3.17;;;;;;;16.08;66.13;100557.27;126308;1099;104315;-78
2021/07/23 01:42:27;;;;;;;7.97;3.13;;;;;;;16.07;66.98;100563.42;126308;1099;104141;-78
2021/07/23 01:44:58;;;;;;;5.97;2.93;;;;;;;16.08;67.43;100564.30;126369;1098;104175;-78
2021/07/23 01:47:29;;;;;;;4.97;2.87;;;;;;;16.07;66.65;100560.77;126312;1099;104184;-77
2021/07/23 01:50:00;;;;;;;5.83;2.93;;;;;;;16.06;66.85;100555.45;126311;1099;104313;-77
2021/07/23 01:52:33;;;;;;;7.17;3.10;;;;;;;16.03;66.40;100558.06;126279;1099;104153;-78
2021/07/23 01:55:08;;;;;;;9.90;2.80;;;;;;;16.00;67.16;100561.54;126330;1099;104210;-77
2021/07/23 01:57:50;;;;;;;9.27;3.10;;;;;;;15.98;67.52;100565.94;126323;1099;104709;-77
2021/07/23 02:00:21;;;;;;;7.80;3.40;;;;;;;15.95;67.73;100557.95;126331;1099;104194;-78
2021/07/23 02:02:52;;;;;;;8.00;3.43;;;;;;;15.90;67.75;100560.52;126280;1099;102965;-78
2021/07/23 02:05:29;;;;;;;5.23;2.80;;;;;;;15.89;67.37;100560.50;126296;1097;104300;-77
2021/07/23 02:08:02;;;;;;;7.20;3.20;;;;;;;15.88;67.57;100558.71;126350;1099;104213;-78
2021/07/23 02:10:33;;;;;;;11.40;3.60;;;;;;;15.86;67.32;100560.45;126352;1099;104166;-77
2021/07/23 02:13:05;;;;;;;11.30;2.97;;;;;;;15.83;67.25;100558.64;126285;1099;104140;-78
2021/07/23 02:15:42;;;;;;;7.10;3.20;;;;;;;15.83;67.57;100560.41;126317;1099;104143;-77
2021/07/23 02:18:15;;;;;;;6.53;2.90;;;;;;;15.81;67.34;100569.20;126266;1098;104271;-77
2021/07/23 02:20:47;;;;;;;7.30;2.87;;;;;;;15.79;68.16;100564.77;126352;1099;104149;-77
2021/07/23 02:23:18;;;;;;;8.97;3.40;;;;;;;15.79;67.62;100565.66;126266;1099;104168;-77
2021/07/23 02:25:49;;;;;;;5.00;2.63;;;;;;;15.77;67.72;100572.69;126348;1097;104278;-77
2021/07/23 02:28:21;;;;;;;10.43;3.13;;;;;;;15.74;68.15;100569.95;126283;1099;104268;-78
2021/07/23 02:30:56;;;;;;;5.37;2.53;;;;;;;15.73;68.81;100570.81;126330;1099;104140;-78
2021/07/23 02:33:28;;;;;;;6.87;3.10;;;;;;;15.72;67.57;100574.34;126295;1099;104140;-77
2021/07/23 02:36:07;;;;;;;7.60;3.03;;;;;;;15.73;68.00;100578.75;126338;1098;104348;-78
2021/07/23 02:38:42;;;;;;;7.90;3.17;;;;;;;15.72;68.79;100571.70;126342;1099;104670;-78
2021/07/23 02:41:15;;;;;;;6.47;2.67;;;;;;;15.70;68.23;100576.05;126351;1099;104614;-77
2021/07/23 02:43:49;;;;;;;7.50;3.07;;;;;;;15.68;69.02;100569.86;126265;1099;104437;-78
2021/07/23 02:46:20;;;;;;;6.60;2.60;;;;;;;15.68;68.63;100571.63;126367;1099;104283;-77
2021/07/23 02:48:52;;;;;;;8.67;3.10;;;;;;;15.65;67.94;100572.45;126344;1097;104245;-78
2021/07/23 02:51:23;;;;;;;7.47;2.73;;;;;;;15.64;68.82;100568.02;126304;1099;104178;-78
2021/07/23 02:53:55;;;;;;;8.40;2.90;;;;;;;15.62;68.22;100573.28;126265;1099;104312;-78
2021/07/23 02:56:26;;;;;;;7.43;2.80;;;;;;;15.61;68.20;100571.53;126262;1099;104139;-77
2021/07/23 02:58:57;;;;;;;9.00;2.97;;;;;;;15.60;68.37;100568.86;126306;1099;104204;-79
2021/07/23 03:01:29;;;;;;;6.30;2.60;;;;;;;15.59;68.61;100580.30;126323;1099;104268;-78
2021/07/23 03:04:02;;;;;;;9.23;3.00;;;;;;;15.58;69.37;100575.85;126343;1099;104146;-77
2021/07/23 03:06:39;;;;;;;5.80;2.80;;;;;;;15.58;68.47;100583.79;126326;1099;103163;-78
2021/07/23 03:09:11;;;;;;;8.60;2.70;;;;;;;15.59;68.39;100582.94;126291;1099;104169;-78
2021/07/23 03:11:42;;;;;;;8.67;3.00;;;;;;;15.59;69.51;100580.30;126340;1099;104168;-78
2021/07/23 03:14:14;;;;;;;7.67;3.03;;;;;;;15.61;69.39;100586.48;126293;1099;104274;-78
2021/07/23 03:16:56;;;;;;;7.27;3.00;;;;;;;15.59;69.93;100583.81;126257;1099;104310;-78
2021/07/23 03:19:28;;;;;;;9.00;2.77;;;;;;;15.61;69.80;100582.11;126305;1099;104216;-77
2021/07/23 03:21:59;;;;;;;9.10;3.10;;;;;;;15.63;69.17;100576.84;126303;1099;104296;-77
2021/07/23 03:24:30;;;;;;;7.97;2.83;;;;;;;15.66;69.13;100579.54;126288;1099;104322;-78
2021/07/23 03:27:03;;;;;;;8.37;3.37;;;;;;;15.69;69.10;100581.32;126209;1096;104176;-77
2021/07/23 03:29:35;;;;;;;6.10;2.90;;;;;;;15.70;68.93;100580.47;126251;1099;104149;-76
2021/07/23 03:32:07;;;;;;;8.27;3.20;;;;;;;15.72;69.04;100584.02;126222;1099;104203;-79
2021/07/23 03:34:37;;;;;;;7.93;3.13;;;;;;;15.73;69.25;100586.69;126140;1098;105806;-78
2021/07/23 03:37:15;;;;;;;11.40;3.20;;;;;;;15.76;69.17;100576.16;126310;1099;104142;-78
2021/07/23 03:39:58;;;;;;;9.67;3.43;;;;;;;15.78;69.40;100590.36;126365;1099;104146;-77
2021/07/23 03:42:41;;;;;;;9.57;3.20;;;;;;;15.83;70.21;100573.64;126288;1099;104201;-77
2021/07/23 03:45:21;;;;;;;6.43;3.10;;;;;;;15.86;70.03;100576.33;126281;1098;102482;-77
2021/07/23 03:47:57;;;;;;;7.47;2.97;;;;;;;15.90;69.74;100580.81;126327;1099;104182;-78
2021/07/23 03:50:28;;;;;;;6.37;3.27;;;;;;;15.94;69.70;100572.95;126322;1099;104159;-78
2021/07/23 03:53:02;;;;;;;7.10;3.40;;;;;;;16.00;69.24;100577.42;126311;1099;104185;-76
2021/07/23 03:55:48;;;;;;;12.67;3.43;;;;;;;16.04;69.34;100576.61;126267;1099;104235;-78
2021/07/23 03:58:46;;;;;;;9.13;3.43;;;;;;;16.09;69.69;100574.03;126286;1099;104214;-77
2021/07/23 04:01:27;;;;;;;7.47;3.50;;;;;;;16.10;69.21;100576.70;126294;1099;103347;-77
2021/07/23 04:04:00;;;;;;;8.83;3.33;;;;;;;16.14;69.49;100577.62;126308;1098;104239;-77
2021/07/23 04:06:31;;;;;;;9.50;3.30;;;;;;;16.17;69.26;100578.58;126283;1099;111777;-78
2021/07/23 04:09:03;;;;;;;12.23;3.23;;;;;;;16.24;69.61;100578.66;126335;1099;104319;-77
2021/07/23 04:11:37;;;;;;;6.80;3.07;;;;;;;16.29;69.56;100580.48;126380;1099;104306;-77
2021/07/23 04:14:13;;;;;;;7.17;3.30;;;;;;;16.33;69.17;100584.05;126262;1099;104313;-77
2021/07/23 04:16:44;;;;;;;9.43;3.27;;;;;;;16.37;69.36;100569.13;126141;1099;104194;-78
2021/07/23 04:19:15;;;;;;;7.00;3.40;;;;;;;16.43;69.52;100578.02;126354;1099;104155;-78
2021/07/23 04:21:53;;;;;;;11.33;3.50;;;;;;;16.47;69.08;100584.23;126332;1099;104686;-77
2021/07/23 04:24:32;;;;;;;8.90;3.30;;;;;;;16.52;69.47;100582.56;126344;1099;104146;-77
2021/07/23 04:27:04;;;;;;;11.17;3.50;;;;;;;16.59;69.68;100573.80;126307;1099;104763;-78
2021/07/23 04:29:35;;;;;;;9.07;3.20;;;;;;;16.67;69.32;100573.89;126330;1099;104155;-76
2021/07/23 04:32:07;;;;;;;9.93;4.00;;;;;;;16.72;69.29;100577.51;126312;1098;104235;-77
2021/07/23 04:34:37;;;;;;;9.43;3.77;;;;;;;16.76;69.04;100573.13;126340;1098;104235;-77
2021/07/23 04:37:16;;;;;;;9.85;3.50;;;;;;;16.82;68.87;100573.20;126304;1099;120102;-77
2021/07/23 04:39:58;;;;;;;10.77;3.40;;;;;;;16.89;68.85;100575.05;126178;1099;104322;-77
2021/07/23 04:42:29;;;;;;;7.73;3.57;;;;;;;16.96;68.86;100568.09;126269;1099;104146;-79
2021/07/23 04:45:04;;;;;;;8.60;3.27;;;;;;;17.02;68.87;100571.68;126241;1097;104181;-78
2021/07/23 04:47:37;;;;;;;12.20;3.60;;;;;;;17.10;68.55;100568.23;126241;1099;104417;-78
2021/07/23 04:50:11;;;;;;;10.27;3.67;;;;;;;17.18;68.96;100572.72;126281;1099;104192;-78
2021/07/23 04:52:59;;;;;;;8.30;3.30;;;;;;;17.26;68.37;100580.75;126196;1099;105274;-78
2021/07/23 04:55:53;;;;;;;6.20;3.20;;;;;;;17.31;68.64;100573.75;126135;1099;104127;-77
2021/07/23 04:58:34;;;;;;;9.87;3.50;;;;;;;17.37;68.74;100578.20;125998;1096;104149;-78
2021/07/23 05:01:05;;;;;;;12.30;3.85;;;;;;;17.44;68.27;100569.43;126015;1099;104341;-78
2021/07/23 05:03:38;;;;;;;11.33;4.10;;;;;;;17.51;68.13;100573.02;125948;1099;104287;-78
2021/07/23 05:06:10;;;;;;;9.55;3.58;;;;;;;17.56;68.34;100571.28;125800;1099;104258;-78
2021/07/23 05:08:41;;;;;;;11.00;4.00;;;;;;;17.61;68.07;100573.10;125989;1099;104302;-77
2021/07/23 05:11:15;;;;;;;12.77;4.10;;;;;;;17.69;67.91;100574.94;125918;1098;104249;-78
2021/07/23 05:13:48;;;;;;;13.33;3.33;;;;;;;17.75;67.68;100567.03;126203;1099;104270;-77
2021/07/23 05:16:21;;;;;;;12.67;4.00;;;;;;;17.83;67.80;100573.27;126136;1099;104328;-79
2021/07/23 05:18:52;;;;;;;10.97;3.53;;;;;;;17.93;67.70;100574.25;125377;1099;104284;-78
2021/07/23 05:21:23;;;;;;;8.23;3.40;;;;;;;17.99;67.30;100581.38;126117;1099;104255;-79
2021/07/23 05:23:54;;;;;;;7.73;3.67;;;;;;;18.04;67.19;100588.47;126053;1099;104307;-80
2021/07/23 05:26:26;;;;;;;10.10;3.50;;;;;;;18.10;67.25;100582.33;126048;1099;104190;-79
2021/07/23 05:28:57;;;;;;;13.50;3.47;;;;;;;18.15;67.03;100585.89;125357;1099;104143;-80
2021/07/23 05:31:29;;;;;;;9.45;3.60;;;;;;;18.22;67.46;100585.05;126087;1099;104348;-81
2021/07/23 05:34:03;;;;;;;9.10;3.60;;;;;;;18.30;66.65;100582.45;125339;1099;104425;-77
2021/07/23 05:36:34;;;;;;;9.97;3.33;;;;;;;18.37;66.72;100580.70;126099;1099;104259;-77
2021/07/23 05:39:09;;;;;;;11.80;3.93;;;;;;;18.43;66.10;100576.33;125348;1099;105380;-78
2021/07/23 05:41:42;;;;;;;9.70;3.60;;;;;;;18.49;66.35;100575.44;126098;1099;104188;-79
2021/07/23 05:44:17;;;;;;;9.67;3.30;;;;;;;18.56;65.99;100576.34;126147;1099;104355;-79
2021/07/23 05:46:54;;;;;;;6.57;2.90;;;;;;;18.64;66.27;100580.83;126230;1099;104242;-78
2021/07/23 05:49:27;;;;;;;7.00;2.70;;;;;;;18.72;65.60;100583.52;126258;1099;104143;-79
2021/07/23 05:52:03;;;;;;;8.50;3.30;;;;;;;18.81;65.45;100582.67;126183;1098;104146;-80
2021/07/23 05:54:39;;;;;;;10.30;3.40;;;;;;;18.88;65.01;100581.81;126087;1099;104136;-78
2021/07/23 05:57:17;;;;;;;8.37;3.23;;;;;;;18.97;65.12;100579.19;126054;1099;104194;-79
2021/07/23 05:59:52;;;;;;;9.20;3.20;;;;;;;19.07;65.27;100580.08;126203;1098;104245;-78
2021/07/23 06:02:24;;;;;;;12.77;3.97;;;;;;;19.13;64.75;100573.91;126132;1099;104296;-77
2021/07/23 06:04:59;;;;;;;7.20;3.02;;;;;;;19.21;64.50;100577.45;126101;1099;104268;-79
2021/07/23 06:07:32;;;;;;;10.87;3.30;;;;;;;19.27;65.23;100572.14;126066;1099;104268;-79
2021/07/23 06:10:06;;;;;;;10.58;3.22;;;;;;;19.33;65.17;100574.81;126135;1099;104264;-78
2021/07/23 06:12:37;;;;;;;;;;;;;;;19.41;65.35;100577.48;126202;1098;104310;-80
2021/07/23 06:15:09;;;;;;;12.60;3.50;;;;;;;19.46;64.88;100583.71;126056;1099;104137;-78
2021/07/23 06:17:44;;;;;;;6.60;3.07;;;;;;;19.51;64.33;100570.38;126000;1097;104194;-77
2021/07/23 06:20:16;;;;;;;13.87;3.13;;;;;;;19.56;64.72;100572.16;126167;1099;104185;-78
2021/07/23 06:22:57;;;;;;;13.93;3.98;;;;;;;19.66;64.83;100573.03;126075;1099;104294;-79
2021/07/23 06:25:31;;;;;;;15.17;3.47;;;;;;;19.74;64.28;100570.38;126170;1099;104134;-79
2021/07/23 06:28:13;;;;;;;12.63;3.53;;;;;;;19.81;64.02;100565.98;126026;1099;104676;-79
2021/07/23 06:30:46;;;;;;;14.07;3.67;;;;;;;19.89;63.94;100566.85;126037;1099;104219;-77
2021/07/23 06:33:20;;;;;;;19.67;4.40;;;;;;;19.99;64.80;100560.63;125981;1099;104162;-78
2021/07/23 06:35:53;;;;;;;25.17;4.97;;;;;;;20.13;64.37;100563.23;125151;1099;104220;-78
2021/07/23 06:38:28;;;;;;;24.43;4.87;;;;;;;20.27;63.63;100557.87;125951;1099;104252;-79
2021/07/23 06:41:00;;;;;;;18.90;4.60;;;;;;;20.39;63.39;100557.83;125998;1099;104301;-78
2021/07/23 06:43:32;;;;;;;20.53;4.80;;;;;;;20.46;64.02;100556.05;125754;1099;104223;-81
2021/07/23 06:46:14;;;;;;;16.03;4.20;;;;;;;20.65;62.97;100562.21;125278;1099;104156;-79
2021/07/23 06:48:47;;;;;;;13.63;4.03;;;;;;;20.79;63.01;100557.69;125242;1099;104498;-79
2021/07/23 06:51:26;;;;;;;18.03;4.67;;;;;;;20.99;62.49;100562.03;125289;1099;104143;-81
2021/07/23 06:54:13;;;;;;;12.70;3.73;;;;;;;21.13;62.38;100561.91;125814;1099;104239;-80
2021/07/23 06:56:54;;;;;;;13.37;3.77;;;;;;;21.21;61.90;100557.43;126139;1099;104288;-81
2021/07/23 06:59:28;;;;;;;12.10;3.47;;;;;;;21.32;61.58;100562.69;126129;1099;104367;-79
2021/07/23 07:02:02;;;;;;;8.97;3.13;;;;;;;21.43;61.70;100558.14;126125;1099;104290;-80
2021/07/23 07:04:39;;;;;;;12.47;3.70;;;;;;;21.60;60.88;100559.80;126201;1099;104274;-81
2021/07/23 07:07:22;;;;;;;19.70;3.80;;;;;;;21.72;60.89;100557.93;126063;1099;104248;-80
2021/07/23 07:09:58;;;;;;;15.50;3.37;;;;;;;21.88;61.34;100557.79;126138;1099;104300;-78
2021/07/23 07:12:38;;;;;;;10.90;3.43;;;;;;;22.02;59.83;100549.63;126026;1099;104304;-80
2021/07/23 07:15:15;;;;;;;9.37;3.10;;;;;;;22.11;59.82;100557.55;126033;1096;104296;-79
2021/07/23 07:17:57;;;;;;;19.17;4.03;;;;;;;22.21;59.73;100550.30;126114;1099;104328;-79
2021/07/23 07:20:31;;;;;;;12.33;3.60;;;;;;;22.39;59.02;100549.22;126122;1099;105499;-80
2021/07/23 07:23:03;;;;;;;11.57;3.10;;;;;;;22.54;57.78;100543.68;125973;1099;104139;-79
2021/07/23 07:25:35;;;;;;;9.63;3.00;;;;;;;22.74;58.08;100550.56;126027;1099;104204;-78
2021/07/23 07:28:08;;;;;;;10.40;2.90;;;;;;;22.85;55.69;100547.75;125947;1099;104172;-78
2021/07/23 07:30:47;;;;;;;9.23;2.37;;;;;;;23.07;55.82;100551.86;126120;1097;104194;-79
2021/07/23 07:33:20;;;;;;;7.13;2.33;;;;;;;23.27;54.17;100548.91;126014;1099;104239;-78
2021/07/23 07:35:54;;;;;;;6.53;2.43;;;;;;;23.48;53.55;100549.45;126262;1099;104242;-80
2021/07/23 07:38:30;;;;;;;7.40;2.35;;;;;;;23.62;51.85;100546.55;126211;1097;104201;-79
2021/07/23 07:41:04;;;;;;;7.47;2.20;;;;;;;23.77;51.94;100542.73;125323;1099;108187;-79
2021/07/23 07:43:37;;;;;;;5.97;2.23;;;;;;;23.94;52.22;100545.13;125268;1102;104250;-78
2021/07/23 07:46:12;;;;;;;3.13;2.20;;;;;;;24.11;50.80;100534.96;125220;1099;104354;-81
2021/07/23 07:48:47;;;;;;;3.77;2.00;;;;;;;24.31;49.61;100542.61;125214;1102;104328;-80
2021/07/23 07:51:21;;;;;;;3.13;2.10;;;;;;;24.51;50.53;100533.24;125369;1102;118888;-80
2021/07/23 07:53:53;;;;;;;5.10;2.50;;;;;;;24.72;50.41;100534.63;125271;1102;104424;-78
2021/07/23 07:56:30;;;;;;;5.43;2.33;;;;;;;24.85;48.87;100537.91;125327;1102;104204;-78
2021/07/23 07:59:13;;;;;;;3.90;2.10;;;;;;;24.89;48.41;100537.80;125184;1099;104292;-79
2021/07/23 08:01:47;;;;;;;5.77;2.47;;;;;;;24.94;48.01;100543.93;125323;1102;104233;-81
2021/07/23 08:04:35;;;;;;;7.77;2.37;;;;;;;25.07;46.97;100531.13;125218;1100;104144;-80
2021/07/23 08:07:18;;;;;;;3.57;1.80;;;;;;;25.26;44.05;100544.12;125173;1099;104339;-81
2021/07/23 08:09:56;;;;;;;5.20;1.77;;;;;;;25.44;44.50;100535.60;125233;1099;104146;-82
2021/07/23 08:12:46;;;;;;;2.83;1.87;;;;;;;25.53;43.30;100536.31;125664;1099;104178;-81
2021/07/23 08:15:21;;;;;;;4.87;2.00;;;;;;;25.62;43.06;100530.70;126264;1099;104198;-79
2021/07/23 08:17:57;;;;;;;3.50;1.83;;;;;;;25.73;43.17;100528.61;126170;1098;104203;-79
2021/07/23 08:20:34;;;;;;;2.43;1.87;;;;;;;25.83;44.11;100526.55;126021;1099;104159;-80
2021/07/23 08:23:12;;;;;;;7.80;2.17;;;;;;;25.99;43.04;100524.34;126025;1099;104197;-81
2021/07/23 08:25:57;;;;;;;5.43;2.20;;;;;;;25.98;43.38;100519.91;126285;1099;104152;-79
2021/07/23 08:28:32;;;;;;;4.97;2.53;;;;;;;26.03;43.78;100520.66;126075;1099;104140;-78
2021/07/23 08:31:11;;;;;;;5.87;2.10;;;;;;;26.17;42.81;100515.76;126102;1099;104146;-80
2021/07/23 08:33:46;;;;;;;6.63;2.13;;;;;;;26.21;41.41;100519.27;126069;1099;104309;-78
2021/07/23 08:36:19;;;;;;;5.40;2.00;;;;;;;26.31;40.81;100520.74;126115;1099;104204;-78
2021/07/23 08:38:54;;;;;;;6.80;2.23;;;;;;;26.41;40.60;100521.34;126117;1099;104223;-79
2021/07/23 08:41:27;;;;;;;6.10;2.20;;;;;;;26.50;40.16;100521.07;126152;1099;104136;-78
2021/07/23 08:44:02;;;;;;;4.75;1.90;;;;;;;26.49;39.39;100519.33;126284;1099;104248;-79
2021/07/23 08:46:35;;;;;;;2.72;1.60;;;;;;;26.47;38.10;100514.91;126198;1099;104142;-77
2021/07/23 08:49:08;;;;;;;3.43;2.00;;;;;;;26.39;37.40;100533.09;126249;1099;104629;-77
2021/07/23 08:51:41;;;;;;;2.53;1.87;;;;;;;26.47;38.69;100526.55;126162;1099;104160;-77
2021/07/23 08:54:14;;;;;;;6.97;2.30;;;;;;;26.49;37.32;100522.02;126205;1099;104194;-77
2021/07/23 08:56:49;;;;;;;11.77;2.90;;;;;;;26.52;37.72;100524.63;126249;1099;104246;-76
2021/07/23 08:59:21;;;;;;;3.40;1.90;;;;;;;26.52;36.03;100530.00;126222;1098;104153;-75
2021/07/23 09:02:06;;;;;;;3.13;1.80;;;;;;;26.54;36.15;100528.14;126168;1097;104200;-75
2021/07/23 09:04:39;;;;;;;5.97;1.90;;;;;;;26.52;36.14;100516.55;126262;1099;104242;-78
2021/07/23 09:07:31;;;;;;;5.37;2.00;;;;;;;26.53;36.36;100520.98;126328;1099;104847;-78
2021/07/23 09:10:06;;;;;;;3.13;1.60;;;;;;;26.54;36.16;100516.50;126062;1099;104399;-78
2021/07/23 09:12:52;;;;;;;3.23;2.10;;;;;;;26.59;36.45;100516.36;125918;1099;104169;-78
2021/07/23 09:15:33;;;;;;;5.50;2.60;;;;;;;26.57;36.42;100516.41;125990;1099;104162;-77
2021/07/23 09:18:09;;;;;;;4.17;2.27;;;;;;;26.58;35.70;100512.77;125999;1099;104146;-79
2021/07/23 09:20:42;;;;;;;6.37;2.30;;;;;;;26.60;35.93;100504.65;125182;1102;104235;-78
2021/07/23 09:23:29;;;;;;;6.70;2.47;;;;;;;26.69;35.71;100515.16;125185;1102;104348;-79
2021/07/23 09:26:16;;;;;;;5.00;2.40;;;;;;;26.73;35.74;100511.46;125191;1102;104315;-78
2021/07/23 09:28:55;;;;;;;5.17;2.43;;;;;;;26.80;36.49;100504.97;125320;1099;104480;-81
2021/07/23 09:31:31;;;;;;;5.25;2.05;;;;;;;26.84;35.76;100503.05;125126;1102;104338;-80
2021/07/23 09:34:07;;;;;;;4.70;2.30;;;;;;;26.86;35.68;100499.36;125171;1102;104287;-80
2021/07/23 09:36:44;;;;;;;6.70;2.03;;;;;;;26.80;36.24;100496.89;125247;1102;104379;-79
2021/07/23 09:39:20;;;;;;;5.87;2.30;;;;;;;26.76;35.22;100499.73;125204;1102;104451;-78
2021/07/23 09:42:04;;;;;;;4.97;2.60;;;;;;;26.67;34.72;100495.50;125201;1102;104788;-80
2021/07/23 09:44:38;;;;;;;7.07;2.70;;;;;;;26.71;35.35;100500.74;125224;1102;104306;-79
2021/07/23 09:47:25;;;;;;;6.17;2.22;;;;;;;26.71;35.04;100497.18;125593;1099;104226;-78
2021/07/23 09:49:59;;;;;;;6.00;2.37;;;;;;;26.63;34.57;100499.17;126057;1099;104236;-78
2021/07/23 09:52:35;;;;;;;5.70;2.37;;;;;;;26.63;34.98;100488.41;126134;1098;104305;-79
2021/07/23 09:55:09;;;;;;;4.30;2.25;;;;;;;26.68;34.83;100497.28;126173;1099;104197;-77
2021/07/23 09:57:46;;;;;;;3.87;2.37;;;;;;;26.75;35.10;100492.58;126213;1099;104143;-77
2021/07/23 10:00:23;;;;;;;3.90;1.90;;;;;;;26.76;34.76;100492.52;126293;1096;104580;-77
2021/07/23 10:02:55;;;;;;;4.03;2.20;;;;;;;26.75;34.54;100477.30;126207;1099;104216;-76
2021/07/23 10:05:36;;;;;;;3.77;2.50;;;;;;;26.78;34.98;100474.50;126190;1099;104338;-76
2021/07/23 10:08:14;;;;;;;3.77;2.23;;;;;;;26.79;34.59;100484.35;125918;1099;104143;-76
2021/07/23 10:10:50;;;;;;;4.50;2.47;;;;;;;26.75;34.95;100474.60;126094;1099;105118;-77
2021/07/23 10:13:27;;;;;;;4.37;2.50;;;;;;;26.77;35.42;100485.32;126000;1099;104284;-75
2021/07/23 10:16:00;;;;;;;7.03;2.70;;;;;;;26.69;35.20;100480.17;126020;1099;104338;-77
2021/07/23 10:18:31;;;;;;;5.70;2.62;;;;;;;26.70;35.05;100479.27;126086;1097;104162;-75
2021/07/23 10:21:02;;;;;;;5.43;2.50;;;;;;;26.68;35.17;100476.62;126013;1098;104201;-77
2021/07/23 10:23:39;;;;;;;8.33;2.40;;;;;;;26.75;35.43;100473.73;126124;1097;104188;-76
2021/07/23 10:26:13;;;;;;;6.83;2.20;;;;;;;26.88;34.91;100477.77;126215;1099;104197;-77
2021/07/23 10:28:57;;;;;;;15.50;2.93;;;;;;;26.98;35.36;100479.25;125948;1097;104192;-77
2021/07/23 10:31:45;;;;;;;6.93;2.43;;;;;;;27.18;35.49;100459.73;126110;1099;104344;-76
2021/07/23 10:34:34;;;;;;;5.20;2.63;;;;;;;27.28;35.46;100468.38;126214;1099;104201;-76
2021/07/23 10:37:05;;;;;;;8.73;2.77;;;;;;;27.17;34.74;100470.56;126227;1099;104599;-76
2021/07/23 10:39:36;;;;;;;6.57;2.53;;;;;;;26.94;35.20;100477.58;126120;1099;104194;-77
2021/07/23 10:42:28;;;;;;;4.70;2.70;;;;;;;26.82;35.59;100473.48;126079;1099;105205;-77
2021/07/23 10:44:59;;;;;;;6.30;2.50;;;;;;;26.98;35.49;100481.94;126033;1099;108191;-77
2021/07/23 10:47:42;;;;;;;4.07;2.33;;;;;;;27.14;35.11;100479.61;126271;1097;104134;-76
2021/07/23 10:50:16;;;;;;;4.13;2.30;;;;;;;27.27;35.20;100466.64;126220;1099;104291;-77
2021/07/23 10:52:48;;;;;;;6.00;2.60;;;;;;;27.34;35.50;100472.72;126287;1097;104216;-77
2021/07/23 10:55:24;;;;;;;6.30;2.73;;;;;;;27.42;34.95;100462.55;126239;1099;104210;-78
2021/07/23 10:58:20;;;;;;;7.07;2.57;;;;;;;27.32;35.12;100466.52;126168;1099;104594;-77
2021/07/23 11:00:54;;;;;;;4.27;2.63;;;;;;;27.08;35.21;100474.43;126125;1099;104144;-77
2021/07/23 11:03:51;;;;;;;5.00;2.43;;;;;;;26.73;34.74;100473.78;126060;1099;104168;-77
2021/07/23 11:06:26;;;;;;;4.50;2.70;;;;;;;26.58;35.18;100471.53;126138;1100;104736;-78
2021/07/23 11:09:03;;;;;;;7.73;3.00;;;;;;;26.57;35.07;100467.07;126087;1099;104200;-77
2021/07/23 11:11:37;;;;;;;7.73;2.97;;;;;;;26.66;35.31;100461.44;126104;1099;104181;-79
2021/07/23 11:14:22;;;;;;;5.37;2.50;;;;;;;26.69;35.16;100455.95;126115;1099;104248;-77
2021/07/23 11:17:05;;;;;;;5.23;2.53;;;;;;;26.78;34.94;100458.36;126245;1098;104261;-79
2021/07/23 11:19:38;;;;;;;6.50;2.37;;;;;;;26.94;34.53;100452.48;126190;1099;104291;-78
2021/07/23 11:22:13;;;;;;;4.30;2.60;;;;;;;27.13;34.63;100448.25;126116;1099;104315;-78
2021/07/23 11:24:47;;;;;;;6.43;2.70;;;;;;;27.24;33.54;100442.50;126025;1100;104169;-77
2021/07/23 11:27:30;;;;;;;9.00;2.50;;;;;;;27.16;34.31;100450.84;126076;1099;104194;-78
2021/07/23 11:30:16;;;;;;;6.93;2.40;;;;;;;27.13;34.41;100434.78;126273;1099;104169;-80
2021/07/23 11:32:55;;;;;;;6.03;2.60;;;;;;;26.99;33.94;100437.04;126225;1099;104185;-77
2021/07/23 11:35:29;;;;;;;4.10;2.37;;;;;;;26.78;33.63;100444.03;126254;1098;104185;-78
2021/07/23 11:38:12;;;;;;;5.60;2.73;;;;;;;26.63;34.12;100440.87;126099;1099;104175;-79
2021/07/23 11:40:48;;;;;;;6.60;2.70;;;;;;;26.71;34.01;100440.66;126153;1099;104248;-78
2021/07/23 11:43:24;;;;;;;7.27;2.80;;;;;;;26.83;33.83;100442.06;126165;1099;104178;-78
2021/07/23 11:45:57;;;;;;;6.33;2.87;;;;;;;26.97;33.78;100431.70;126197;1099;104146;-77